Aviation Digital Data Service (ADDS)

Output produced by METARs form (1215 UTC 19 January 2019)
found at http://www.aviationweather.gov/metar/data/
 
METAR text: GLRB 191200Z 35003KT 9999 BKN022 31/24 Q1013 NOSIG
Conditions at: GLRB (ROBERTS INTL/MON, LR) observed 1200 UTC 19 January 2019
Temperature: 31.0°C (88°F)
Dewpoint: 24.0°C (75°F) [RH = 66%]
Pressure (altimeter): 29.91 inches Hg (1013.0 mb)
Winds: from the N (350 degrees) at 3 MPH (3 knots; 1.5 m/s)
Visibility: 6 or more miles (10+ km)
Ceiling: 2200 feet AGL
Clouds: broken clouds at 2200 feet AGL
Weather: no significant weather observed at this time

METAR text: GLRB 191130Z 28003KT 9000 BKN022 31/24 Q1014 RMK HZVC
Conditions at: GLRB (ROBERTS INTL/MON, LR) observed 1130 UTC 19 January 2019
Temperature: 31.0°C (88°F)
Dewpoint: 24.0°C (75°F) [RH = 66%]
Pressure (altimeter): 29.94 inches Hg (1014.0 mb)
Winds: from the W (280 degrees) at 3 MPH (3 knots; 1.5 m/s)
Visibility: 6 miles ( 9 km)
Ceiling: 2200 feet AGL
Clouds: broken clouds at 2200 feet AGL
Weather: no significant weather observed at this time

METAR text: GLRB 191100Z 31007KT 9000 BKN020 30/25 Q1014 RMK HZVC
Conditions at: GLRB (ROBERTS INTL/MON, LR) observed 1100 UTC 19 January 2019
Temperature: 30.0°C (86°F)
Dewpoint: 25.0°C (77°F) [RH = 75%]
Pressure (altimeter): 29.94 inches Hg (1014.0 mb)
Winds: from the NW (310 degrees) at 8 MPH (7 knots; 3.6 m/s)
Visibility: 6 miles ( 9 km)
Ceiling: 2000 feet AGL
Clouds: broken clouds at 2000 feet AGL
Weather: no significant weather observed at this time

METAR text: GLRB 191030Z 34004KT 9000 SCT018 29/24 Q1014 RMK HZVC
Conditions at: GLRB (ROBERTS INTL/MON, LR) observed 1030 UTC 19 January 2019
Temperature: 29.0°C (84°F)
Dewpoint: 24.0°C (75°F) [RH = 74%]
Pressure (altimeter): 29.94 inches Hg (1014.0 mb)
Winds: from the NNW (340 degrees) at 5 MPH (4 knots; 2.1 m/s)
Visibility: 6 miles ( 9 km)
Ceiling: at least 12,000 feet AGL
Clouds: scattered clouds at 1800 feet AGL
Weather: no significant weather observed at this time

METAR text: GLRB 191000Z 34003KT 8000 SCT016 28/24 Q1014 RMK BRVC
Conditions at: GLRB (ROBERTS INTL/MON, LR) observed 1000 UTC 19 January 2019
Temperature: 28.0°C (82°F)
Dewpoint: 24.0°C (75°F) [RH = 79%]
Pressure (altimeter): 29.94 inches Hg (1014.0 mb)
Winds: from the NNW (340 degrees) at 3 MPH (3 knots; 1.5 m/s)
Visibility: 5 miles ( 8 km)
Ceiling: at least 12,000 feet AGL
Clouds: scattered clouds at 1600 feet AGL
Weather: no significant weather observed at this time

METAR text: GLRB 190930Z 35006KT 7000 SCT012 26/25 Q1014 RMK BRVC
Conditions at: GLRB (ROBERTS INTL/MON, LR) observed 0930 UTC 19 January 2019
Temperature: 26.0°C (79°F)
Dewpoint: 25.0°C (77°F) [RH = 94%]
Pressure (altimeter): 29.94 inches Hg (1014.0 mb)
Winds: from the N (350 degrees) at 7 MPH (6 knots; 3.1 m/s)
Visibility: 4 miles ( 7 km)
Ceiling: at least 12,000 feet AGL
Clouds: scattered clouds at 1200 feet AGL
Weather: no significant weather observed at this time

METAR text: GLRB 190900Z 35003KT 6000 BR FEW006 SCT011 25/24 Q1014
Conditions at: GLRB (ROBERTS INTL/MON, LR) observed 0900 UTC 19 January 2019
Temperature: 25.0°C (77°F)
Dewpoint: 24.0°C (75°F) [RH = 94%]
Pressure (altimeter): 29.94 inches Hg (1014.0 mb)
Winds: from the N (350 degrees) at 3 MPH (3 knots; 1.5 m/s)
Visibility: 4 miles ( 6 km)
Ceiling: at least 12,000 feet AGL
Clouds: few clouds at 600 feet AGL
scattered clouds at 1100 feet AGL
Weather: BR  (mist)

METAR text: GLRB 190830Z 34003KT 6000 BR FEW006 SCT011 25/24 Q1013
Conditions at: GLRB (ROBERTS INTL/MON, LR) observed 0830 UTC 19 January 2019
Temperature: 25.0°C (77°F)
Dewpoint: 24.0°C (75°F) [RH = 94%]
Pressure (altimeter): 29.91 inches Hg (1013.0 mb)
Winds: from the NNW (340 degrees) at 3 MPH (3 knots; 1.5 m/s)
Visibility: 4 miles ( 6 km)
Ceiling: at least 12,000 feet AGL
Clouds: few clouds at 600 feet AGL
scattered clouds at 1100 feet AGL
Weather: BR  (mist)

METAR text: GLRB 190800Z 00000KT 6000 BR FEW006 SCT010 24/23 Q1013
Conditions at: GLRB (ROBERTS INTL/MON, LR) observed 0800 UTC 19 January 2019
Temperature: 24.0°C (75°F)
Dewpoint: 23.0°C (73°F) [RH = 94%]
Pressure (altimeter): 29.91 inches Hg (1013.0 mb)
Winds: calm
Visibility: 4 miles ( 6 km)
Ceiling: at least 12,000 feet AGL
Clouds: few clouds at 600 feet AGL
scattered clouds at 1000 feet AGL
Weather: BR  (mist)

METAR text: GLRB 190730Z 00000KT 5000 FEW006 SCT010 24/23 Q1013
Conditions at: GLRB (ROBERTS INTL/MON, LR) observed 0730 UTC 19 January 2019
Temperature: 24.0°C (75°F)
Dewpoint: 23.0°C (73°F) [RH = 94%]
Pressure (altimeter): 29.91 inches Hg (1013.0 mb)
Winds: calm
Visibility: 3 miles ( 5 km)
Ceiling: at least 12,000 feet AGL
Clouds: few clouds at 600 feet AGL
scattered clouds at 1000 feet AGL
Weather: no significant weather observed at this time

METAR text: GLRB 190700Z 00000KT 5000 FEW006 SCT010 SCT100 23/23 Q1013
Conditions at: GLRB (ROBERTS INTL/MON, LR) observed 0700 UTC 19 January 2019
Temperature: 23.0°C (73°F)
Dewpoint: 23.0°C (73°F) [RH = 100%]
Pressure (altimeter): 29.91 inches Hg (1013.0 mb)
Winds: calm
Visibility: 3 miles ( 5 km)
Ceiling: at least 12,000 feet AGL
Clouds: few clouds at 600 feet AGL
scattered clouds at 1000 feet AGL
scattered clouds at 10000 feet AGL
Weather: no significant weather observed at this time

METAR text: GLRB 190630Z 35004KT 7000 BKN010 23/23 Q1012 RMK BRVC
Conditions at: GLRB (ROBERTS INTL/MON, LR) observed 0630 UTC 19 January 2019
Temperature: 23.0°C (73°F)
Dewpoint: 23.0°C (73°F) [RH = 100%]
Pressure (altimeter): 29.88 inches Hg (1012.0 mb)
Winds: from the N (350 degrees) at 5 MPH (4 knots; 2.1 m/s)
Visibility: 4 miles ( 7 km)
Ceiling: 1000 feet AGL
Clouds: broken clouds at 1000 feet AGL
Weather: no significant weather observed at this time

METAR text: GLRB 190230Z 00000KT 7000 FEW011 24/23 Q1012 RMK BRVC
Conditions at: GLRB (ROBERTS INTL/MON, LR) observed 0230 UTC 19 January 2019
Temperature: 24.0°C (75°F)
Dewpoint: 23.0°C (73°F) [RH = 94%]
Pressure (altimeter): 29.88 inches Hg (1012.0 mb)
Winds: calm
Visibility: 4 miles ( 7 km)
Ceiling: at least 12,000 feet AGL
Clouds: few clouds at 1100 feet AGL
Weather: no significant weather observed at this time

METAR text: GLRB 190200Z 00000KT 8000 FEW011 BKN100 24/23 Q1013 RMK BRVC
Conditions at: GLRB (ROBERTS INTL/MON, LR) observed 0200 UTC 19 January 2019
Temperature: 24.0°C (75°F)
Dewpoint: 23.0°C (73°F) [RH = 94%]
Pressure (altimeter): 29.91 inches Hg (1013.0 mb)
Winds: calm
Visibility: 5 miles ( 8 km)
Ceiling: 10000 feet AGL
Clouds: few clouds at 1100 feet AGL
broken clouds at 10000 feet AGL
Weather: no significant weather observed at this time

METAR text: GLRB 190130Z 00000KT 8000 FEW011 BKN100 24/23 Q1013 RMK BRVC
Conditions at: GLRB (ROBERTS INTL/MON, LR) observed 0130 UTC 19 January 2019
Temperature: 24.0°C (75°F)
Dewpoint: 23.0°C (73°F) [RH = 94%]
Pressure (altimeter): 29.91 inches Hg (1013.0 mb)
Winds: calm
Visibility: 5 miles ( 8 km)
Ceiling: 10000 feet AGL
Clouds: few clouds at 1100 feet AGL
broken clouds at 10000 feet AGL
Weather: no significant weather observed at this time

METAR text: GLRB 190030Z 00000KT 8000 FEW011 BKN100 24/23 Q1013 RMK BRVC
Conditions at: GLRB (ROBERTS INTL/MON, LR) observed 0030 UTC 19 January 2019
Temperature: 24.0°C (75°F)
Dewpoint: 23.0°C (73°F) [RH = 94%]
Pressure (altimeter): 29.91 inches Hg (1013.0 mb)
Winds: calm
Visibility: 5 miles ( 8 km)
Ceiling: 10000 feet AGL
Clouds: few clouds at 1100 feet AGL
broken clouds at 10000 feet AGL
Weather: no significant weather observed at this time

METAR text: GLRB 190000Z 00000KT 8000 FEW011 24/23 Q1013 RMK BRVC
Conditions at: GLRB (ROBERTS INTL/MON, LR) observed 0000 UTC 19 January 2019
Temperature: 24.0°C (75°F)
Dewpoint: 23.0°C (73°F) [RH = 94%]
Pressure (altimeter): 29.91 inches Hg (1013.0 mb)
Winds: calm
Visibility: 5 miles ( 8 km)
Ceiling: at least 12,000 feet AGL
Clouds: few clouds at 1100 feet AGL
Weather: no significant weather observed at this time

METAR text: GLRB 182330Z 00000KT 8000 FEW011 24/23 Q1013 RMK BRVC
Conditions at: GLRB (ROBERTS INTL/MON, LR) observed 2330 UTC 18 January 2019
Temperature: 24.0°C (75°F)
Dewpoint: 23.0°C (73°F) [RH = 94%]
Pressure (altimeter): 29.91 inches Hg (1013.0 mb)
Winds: calm
Visibility: 5 miles ( 8 km)
Ceiling: at least 12,000 feet AGL
Clouds: few clouds at 1100 feet AGL
Weather: no significant weather observed at this time

METAR text: GLRB 182300Z 00000KT 9000 FEW011 24/23 Q1013 RMK BRVC
Conditions at: GLRB (ROBERTS INTL/MON, LR) observed 2300 UTC 18 January 2019
Temperature: 24.0°C (75°F)
Dewpoint: 23.0°C (73°F) [RH = 94%]
Pressure (altimeter): 29.91 inches Hg (1013.0 mb)
Winds: calm
Visibility: 6 miles ( 9 km)
Ceiling: at least 12,000 feet AGL
Clouds: few clouds at 1100 feet AGL
Weather: no significant weather observed at this time

METAR text: GLRB 182230Z 00000KT 9000 SCT012 24/23 Q1013 RMK BRVC
Conditions at: GLRB (ROBERTS INTL/MON, LR) observed 2230 UTC 18 January 2019
Temperature: 24.0°C (75°F)
Dewpoint: 23.0°C (73°F) [RH = 94%]
Pressure (altimeter): 29.91 inches Hg (1013.0 mb)
Winds: calm
Visibility: 6 miles ( 9 km)
Ceiling: at least 12,000 feet AGL
Clouds: scattered clouds at 1200 feet AGL
Weather: no significant weather observed at this time

METAR text: GLRB 182200Z 00000KT 9000 BKN012 25/24 Q1013 RMK BRVC
Conditions at: GLRB (ROBERTS INTL/MON, LR) observed 2200 UTC 18 January 2019
Temperature: 25.0°C (77°F)
Dewpoint: 24.0°C (75°F) [RH = 94%]
Pressure (altimeter): 29.91 inches Hg (1013.0 mb)
Winds: calm
Visibility: 6 miles ( 9 km)
Ceiling: 1200 feet AGL
Clouds: broken clouds at 1200 feet AGL
Weather: no significant weather observed at this time

METAR text: GLRB 182130Z 00000KT 9000 BKN012 25/24 Q1013 RMK BRVC
Conditions at: GLRB (ROBERTS INTL/MON, LR) observed 2130 UTC 18 January 2019
Temperature: 25.0°C (77°F)
Dewpoint: 24.0°C (75°F) [RH = 94%]
Pressure (altimeter): 29.91 inches Hg (1013.0 mb)
Winds: calm
Visibility: 6 miles ( 9 km)
Ceiling: 1200 feet AGL
Clouds: broken clouds at 1200 feet AGL
Weather: no significant weather observed at this time

METAR text: GLRB 182100Z 00000KT 9000 FEW012 25/24 Q1013 RMK BRVC
Conditions at: GLRB (ROBERTS INTL/MON, LR) observed 2100 UTC 18 January 2019
Temperature: 25.0°C (77°F)
Dewpoint: 24.0°C (75°F) [RH = 94%]
Pressure (altimeter): 29.91 inches Hg (1013.0 mb)
Winds: calm
Visibility: 6 miles ( 9 km)
Ceiling: at least 12,000 feet AGL
Clouds: few clouds at 1200 feet AGL
Weather: no significant weather observed at this time

METAR text: GLRB 182030Z 00000KT 9000 FEW012 25/24 Q1012 RMK BRVC
Conditions at: GLRB (ROBERTS INTL/MON, LR) observed 2030 UTC 18 January 2019
Temperature: 25.0°C (77°F)
Dewpoint: 24.0°C (75°F) [RH = 94%]
Pressure (altimeter): 29.88 inches Hg (1012.0 mb)
Winds: calm
Visibility: 6 miles ( 9 km)
Ceiling: at least 12,000 feet AGL
Clouds: few clouds at 1200 feet AGL
Weather: no significant weather observed at this time

METAR text: GLRB 182000Z 00000KT 9000 FEW012 26/24 Q1012 RMK BRVC
Conditions at: GLRB (ROBERTS INTL/MON, LR) observed 2000 UTC 18 January 2019
Temperature: 26.0°C (79°F)
Dewpoint: 24.0°C (75°F) [RH = 89%]
Pressure (altimeter): 29.88 inches Hg (1012.0 mb)
Winds: calm
Visibility: 6 miles ( 9 km)
Ceiling: at least 12,000 feet AGL
Clouds: few clouds at 1200 feet AGL
Weather: no significant weather observed at this time

METAR text: GLRB 181900Z 00000KT 8000 FEW012 27/24 Q1011 RMK BRVC
Conditions at: GLRB (ROBERTS INTL/MON, LR) observed 1900 UTC 18 January 2019
Temperature: 27.0°C (81°F)
Dewpoint: 24.0°C (75°F) [RH = 84%]
Pressure (altimeter): 29.85 inches Hg (1011.0 mb)
Winds: calm
Visibility: 5 miles ( 8 km)
Ceiling: at least 12,000 feet AGL
Clouds: few clouds at 1200 feet AGL
Weather: no significant weather observed at this time

METAR text: GLRB 181830Z 00000KT 8000 SCT014 28/23 Q1010 RMK HZVC
Conditions at: GLRB (ROBERTS INTL/MON, LR) observed 1830 UTC 18 January 2019
Temperature: 28.0°C (82°F)
Dewpoint: 23.0°C (73°F) [RH = 74%]
Pressure (altimeter): 29.82 inches Hg (1010.0 mb)
Winds: calm
Visibility: 5 miles ( 8 km)
Ceiling: at least 12,000 feet AGL
Clouds: scattered clouds at 1400 feet AGL
Weather: no significant weather observed at this time

METAR text: GLRB 181800Z 20005KT 8000 BKN014 28/23 Q1010 RMK HZVC
Conditions at: GLRB (ROBERTS INTL/MON, LR) observed 1800 UTC 18 January 2019
Temperature: 28.0°C (82°F)
Dewpoint: 23.0°C (73°F) [RH = 74%]
Pressure (altimeter): 29.82 inches Hg (1010.0 mb)
Winds: from the SSW (200 degrees) at 6 MPH (5 knots; 2.6 m/s)
Visibility: 5 miles ( 8 km)
Ceiling: 1400 feet AGL
Clouds: broken clouds at 1400 feet AGL
Weather: no significant weather observed at this time

METAR text: GLRB 181730Z 21003KT 8000 SCT014 29/23 Q1010 RMK HZVC
Conditions at: GLRB (ROBERTS INTL/MON, LR) observed 1730 UTC 18 January 2019
Temperature: 29.0°C (84°F)
Dewpoint: 23.0°C (73°F) [RH = 70%]
Pressure (altimeter): 29.82 inches Hg (1010.0 mb)
Winds: from the SSW (210 degrees) at 3 MPH (3 knots; 1.5 m/s)
Visibility: 5 miles ( 8 km)
Ceiling: at least 12,000 feet AGL
Clouds: scattered clouds at 1400 feet AGL
Weather: no significant weather observed at this time

METAR text: GLRB 181700Z 19004KT 8000 SCT018 30/22 Q1010 RMK HZVC
Conditions at: GLRB (ROBERTS INTL/MON, LR) observed 1700 UTC 18 January 2019
Temperature: 30.0°C (86°F)
Dewpoint: 22.0°C (72°F) [RH = 62%]
Pressure (altimeter): 29.82 inches Hg (1010.0 mb)
Winds: from the S (190 degrees) at 5 MPH (4 knots; 2.1 m/s)
Visibility: 5 miles ( 8 km)
Ceiling: at least 12,000 feet AGL
Clouds: scattered clouds at 1800 feet AGL
Weather: no significant weather observed at this time

METAR text: GLRB 181630Z 20005KT 8000 SCT020 30/22 Q1010 RMK HZVC
Conditions at: GLRB (ROBERTS INTL/MON, LR) observed 1630 UTC 18 January 2019
Temperature: 30.0°C (86°F)
Dewpoint: 22.0°C (72°F) [RH = 62%]
Pressure (altimeter): 29.82 inches Hg (1010.0 mb)
Winds: from the SSW (200 degrees) at 6 MPH (5 knots; 2.6 m/s)
Visibility: 5 miles ( 8 km)
Ceiling: at least 12,000 feet AGL
Clouds: scattered clouds at 2000 feet AGL
Weather: no significant weather observed at this time

METAR text: GLRB 181600Z 18009KT 8000 SCT020 30/22 Q1010 RMK HZVC
Conditions at: GLRB (ROBERTS INTL/MON, LR) observed 1600 UTC 18 January 2019
Temperature: 30.0°C (86°F)
Dewpoint: 22.0°C (72°F) [RH = 62%]
Pressure (altimeter): 29.82 inches Hg (1010.0 mb)
Winds: from the S (180 degrees) at 10 MPH (9 knots; 4.6 m/s)
Visibility: 5 miles ( 8 km)
Ceiling: at least 12,000 feet AGL
Clouds: scattered clouds at 2000 feet AGL
Weather: no significant weather observed at this time

METAR text: GLRB 181530Z 20012KT 9000 SCT024 31/21 Q1010 RMK HZVC
Conditions at: GLRB (ROBERTS INTL/MON, LR) observed 1530 UTC 18 January 2019
Temperature: 31.0°C (88°F)
Dewpoint: 21.0°C (70°F) [RH = 55%]
Pressure (altimeter): 29.82 inches Hg (1010.0 mb)
Winds: from the SSW (200 degrees) at 14 MPH (12 knots; 6.2 m/s)
Visibility: 6 miles ( 9 km)
Ceiling: at least 12,000 feet AGL
Clouds: scattered clouds at 2400 feet AGL
Weather: no significant weather observed at this time

METAR text: GLRB 181500Z 20010KT 9000 SCT024 31/21 Q1010 RMK HZVC
Conditions at: GLRB (ROBERTS INTL/MON, LR) observed 1500 UTC 18 January 2019
Temperature: 31.0°C (88°F)
Dewpoint: 21.0°C (70°F) [RH = 55%]
Pressure (altimeter): 29.82 inches Hg (1010.0 mb)
Winds: from the SSW (200 degrees) at 12 MPH (10 knots; 5.1 m/s)
Visibility: 6 miles ( 9 km)
Ceiling: at least 12,000 feet AGL
Clouds: scattered clouds at 2400 feet AGL
Weather: no significant weather observed at this time

METAR text: GLRB 181400Z 16011KT 9000 SCT023 31/23 Q1011 RMK HZVC
Conditions at: GLRB (ROBERTS INTL/MON, LR) observed 1400 UTC 18 January 2019
Temperature: 31.0°C (88°F)
Dewpoint: 23.0°C (73°F) [RH = 63%]
Pressure (altimeter): 29.85 inches Hg (1011.0 mb)
Winds: from the SSE (160 degrees) at 13 MPH (11 knots; 5.7 m/s)
Visibility: 6 miles ( 9 km)
Ceiling: at least 12,000 feet AGL
Clouds: scattered clouds at 2300 feet AGL
Weather: no significant weather observed at this time

METAR text: GLRB 181330Z 21012KT 9000 BKN020 32/22 Q1012 RMK HZVC
Conditions at: GLRB (ROBERTS INTL/MON, LR) observed 1330 UTC 18 January 2019
Temperature: 32.0°C (90°F)
Dewpoint: 22.0°C (72°F) [RH = 56%]
Pressure (altimeter): 29.88 inches Hg (1012.0 mb)
Winds: from the SSW (210 degrees) at 14 MPH (12 knots; 6.2 m/s)
Visibility: 6 miles ( 9 km)
Ceiling: 2000 feet AGL
Clouds: broken clouds at 2000 feet AGL
Weather: no significant weather observed at this time

METAR text: GLRB 181300Z 22012KT 9000 BKN020 31/23 Q1012 RMK HZVC
Conditions at: GLRB (ROBERTS INTL/MON, LR) observed 1300 UTC 18 January 2019
Temperature: 31.0°C (88°F)
Dewpoint: 23.0°C (73°F) [RH = 63%]
Pressure (altimeter): 29.88 inches Hg (1012.0 mb)
Winds: from the SW (220 degrees) at 14 MPH (12 knots; 6.2 m/s)
Visibility: 6 miles ( 9 km)
Ceiling: 2000 feet AGL
Clouds: broken clouds at 2000 feet AGL
Weather: no significant weather observed at this time

METAR text: GLRB 181230Z 22010KT 9000 BKN020 31/23 Q1013 RMK HZVC
Conditions at: GLRB (ROBERTS INTL/MON, LR) observed 1230 UTC 18 January 2019
Temperature: 31.0°C (88°F)
Dewpoint: 23.0°C (73°F) [RH = 63%]
Pressure (altimeter): 29.91 inches Hg (1013.0 mb)
Winds: from the SW (220 degrees) at 12 MPH (10 knots; 5.1 m/s)
Visibility: 6 miles ( 9 km)
Ceiling: 2000 feet AGL
Clouds: broken clouds at 2000 feet AGL
Weather: no significant weather observed at this time

METAR text: GLRB 181200Z 26008KT 9000 BKN018 31/23 Q1013 RMK HZVC
Conditions at: GLRB (ROBERTS INTL/MON, LR) observed 1200 UTC 18 January 2019
Temperature: 31.0°C (88°F)
Dewpoint: 23.0°C (73°F) [RH = 63%]
Pressure (altimeter): 29.91 inches Hg (1013.0 mb)
Winds: from the W (260 degrees) at 9 MPH (8 knots; 4.1 m/s)
Visibility: 6 miles ( 9 km)
Ceiling: 1800 feet AGL
Clouds: broken clouds at 1800 feet AGL
Weather: no significant weather observed at this time

METAR text: GLRB 181130Z 25008KT 9000 BKN018 31/23 Q1013 RMK HZVC
Conditions at: GLRB (ROBERTS INTL/MON, LR) observed 1130 UTC 18 January 2019
Temperature: 31.0°C (88°F)
Dewpoint: 23.0°C (73°F) [RH = 63%]
Pressure (altimeter): 29.91 inches Hg (1013.0 mb)
Winds: from the WSW (250 degrees) at 9 MPH (8 knots; 4.1 m/s)
Visibility: 6 miles ( 9 km)
Ceiling: 1800 feet AGL
Clouds: broken clouds at 1800 feet AGL
Weather: no significant weather observed at this time

METAR text: GLRB 181100Z 27010KT 8000 BKN016 30/23 Q1014 RMK HZVC
Conditions at: GLRB (ROBERTS INTL/MON, LR) observed 1100 UTC 18 January 2019
Temperature: 30.0°C (86°F)
Dewpoint: 23.0°C (73°F) [RH = 66%]
Pressure (altimeter): 29.94 inches Hg (1014.0 mb)
Winds: from the W (270 degrees) at 12 MPH (10 knots; 5.1 m/s)
Visibility: 5 miles ( 8 km)
Ceiling: 1600 feet AGL
Clouds: broken clouds at 1600 feet AGL
Weather: no significant weather observed at this time

METAR text: GLRB 181030Z 23005KT 8000 BKN014 29/23 Q1014 RMK HZVC
Conditions at: GLRB (ROBERTS INTL/MON, LR) observed 1030 UTC 18 January 2019
Temperature: 29.0°C (84°F)
Dewpoint: 23.0°C (73°F) [RH = 70%]
Pressure (altimeter): 29.94 inches Hg (1014.0 mb)
Winds: from the SW (230 degrees) at 6 MPH (5 knots; 2.6 m/s)
Visibility: 5 miles ( 8 km)
Ceiling: 1400 feet AGL
Clouds: broken clouds at 1400 feet AGL
Weather: no significant weather observed at this time

METAR text: GLRB 181000Z 26006KT 7000 BKN014 28/24 Q1014 RMK BRVC
Conditions at: GLRB (ROBERTS INTL/MON, LR) observed 1000 UTC 18 January 2019
Temperature: 28.0°C (82°F)
Dewpoint: 24.0°C (75°F) [RH = 79%]
Pressure (altimeter): 29.94 inches Hg (1014.0 mb)
Winds: from the W (260 degrees) at 7 MPH (6 knots; 3.1 m/s)
Visibility: 4 miles ( 7 km)
Ceiling: 1400 feet AGL
Clouds: broken clouds at 1400 feet AGL
Weather: no significant weather observed at this time

METAR text: GLRB 180930Z 32008KT 7000 BKN012 27/24 Q1013 RMK BRVC
Conditions at: GLRB (ROBERTS INTL/MON, LR) observed 0930 UTC 18 January 2019
Temperature: 27.0°C (81°F)
Dewpoint: 24.0°C (75°F) [RH = 84%]
Pressure (altimeter): 29.91 inches Hg (1013.0 mb)
Winds: from the NW (320 degrees) at 9 MPH (8 knots; 4.1 m/s)
Visibility: 4 miles ( 7 km)
Ceiling: 1200 feet AGL
Clouds: broken clouds at 1200 feet AGL
Weather: no significant weather observed at this time

METAR text: GLRB 180900Z 00000KT 7000 BKN012 26/25 Q1013 RMK BRVC
Conditions at: GLRB (ROBERTS INTL/MON, LR) observed 0900 UTC 18 January 2019
Temperature: 26.0°C (79°F)
Dewpoint: 25.0°C (77°F) [RH = 94%]
Pressure (altimeter): 29.91 inches Hg (1013.0 mb)
Winds: calm
Visibility: 4 miles ( 7 km)
Ceiling: 1200 feet AGL
Clouds: broken clouds at 1200 feet AGL
Weather: no significant weather observed at this time

METAR text: GLRB 180830Z 00000KT 5000 BR FEW005 SCT012 25/24 Q1013
Conditions at: GLRB (ROBERTS INTL/MON, LR) observed 0830 UTC 18 January 2019
Temperature: 25.0°C (77°F)
Dewpoint: 24.0°C (75°F) [RH = 94%]
Pressure (altimeter): 29.91 inches Hg (1013.0 mb)
Winds: calm
Visibility: 3 miles ( 5 km)
Ceiling: at least 12,000 feet AGL
Clouds: few clouds at 500 feet AGL
scattered clouds at 1200 feet AGL
Weather: BR  (mist)

METAR text: GLRB 180800Z 00000KT 3000 BR FEW004 SCT010 24/23 Q1012
Conditions at: GLRB (ROBERTS INTL/MON, LR) observed 0800 UTC 18 January 2019
Temperature: 24.0°C (75°F)
Dewpoint: 23.0°C (73°F) [RH = 94%]
Pressure (altimeter): 29.88 inches Hg (1012.0 mb)
Winds: calm
Visibility: 1.86 miles (2.99 km)
Ceiling: at least 12,000 feet AGL
Clouds: few clouds at 400 feet AGL
scattered clouds at 1000 feet AGL
Weather: BR  (mist)

METAR text: GLRB 180730Z 00000KT 0600 FG SCT003 SCT010 23/23 Q1012
Conditions at: GLRB (ROBERTS INTL/MON, LR) observed 0730 UTC 18 January 2019
Temperature: 23.0°C (73°F)
Dewpoint: 23.0°C (73°F) [RH = 100%]
Pressure (altimeter): 29.88 inches Hg (1012.0 mb)
Winds: calm
Visibility: 0.37 miles (0.60 km)
Ceiling: at least 12,000 feet AGL
Clouds: scattered clouds at 300 feet AGL
scattered clouds at 1000 feet AGL
Weather: FG  (fog)

METAR text: GLRB 180700Z 00000KT 3000 BR SCT003 SCT010 24/23 Q1011
Conditions at: GLRB (ROBERTS INTL/MON, LR) observed 0700 UTC 18 January 2019
Temperature: 24.0°C (75°F)
Dewpoint: 23.0°C (73°F) [RH = 94%]
Pressure (altimeter): 29.85 inches Hg (1011.0 mb)
Winds: calm
Visibility: 1.86 miles (2.99 km)
Ceiling: at least 12,000 feet AGL
Clouds: scattered clouds at 300 feet AGL
scattered clouds at 1000 feet AGL
Weather: BR  (mist)

METAR text: GLRB 180100Z 00000KT 9000 FEW011 24/23 Q1012 RMK BRVC
Conditions at: GLRB (ROBERTS INTL/MON, LR) observed 0100 UTC 18 January 2019
Temperature: 24.0°C (75°F)
Dewpoint: 23.0°C (73°F) [RH = 94%]
Pressure (altimeter): 29.88 inches Hg (1012.0 mb)
Winds: calm
Visibility: 6 miles ( 9 km)
Ceiling: at least 12,000 feet AGL
Clouds: few clouds at 1100 feet AGL
Weather: no significant weather observed at this time

METAR text: GLRB 180030Z 00000KT 9000 FEW011 24/23 Q1012 RMK BRVC
Conditions at: GLRB (ROBERTS INTL/MON, LR) observed 0030 UTC 18 January 2019
Temperature: 24.0°C (75°F)
Dewpoint: 23.0°C (73°F) [RH = 94%]
Pressure (altimeter): 29.88 inches Hg (1012.0 mb)
Winds: calm
Visibility: 6 miles ( 9 km)
Ceiling: at least 12,000 feet AGL
Clouds: few clouds at 1100 feet AGL
Weather: no significant weather observed at this time

Forecast for: GLRB (ROBERTS INTL/MON, LR)
Text: TAF GLRB 191000Z 1912/2018 22008KT 9000 SCT018
Forecast period: 1200 UTC 19 January 2019 to 1800 UTC 20 January 2019
Forecast type: FROM: standard forecast or significant change
Winds: from the SW (220 degrees) at 9 MPH (8 knots; 4.1 m/s)
Visibility: 6 miles (9 km)
Ceiling: at least 12,000 feet AGL
Clouds: scattered clouds at 1800 feet AGL
Weather: no significant weather forecast for this period
Text: TEMPO 1913/1917 24014KT 9999 BKN023
Forecast period: 1300 to 1700 UTC 19 January 2019
Forecast type: TEMPORARY: The following changes expected for less than half the time period
Winds: from the WSW (240 degrees) at 16 MPH (14 knots; 7.2 m/s)
Visibility: 6 or more miles 10+ km)
Ceiling: 2300 feet AGL
Clouds: broken clouds at 2300 feet AGL
Weather: no significant weather forecast for this period
Text: TEMPO 1918/1922 20009KT 9000 SCT017
Forecast period: 1800 to 2200 UTC 19 January 2019
Forecast type: TEMPORARY: The following changes expected for less than half the time period
Winds: from the SSW (200 degrees) at 10 MPH (9 knots; 4.6 m/s)
Visibility: 6 miles (9 km)
Ceiling: at least 12,000 feet AGL
Clouds: scattered clouds at 1700 feet AGL
Weather: no significant weather forecast for this period